This is the latest recevied weather packets stored in our database for station/object DB7GV-8. If no packets are shown the sender has not sent any weather packets the latest 10 day(s).
| Time | Temp. | Humidity | Pressure | Rain* | Wind** | Luminosity | Snow |
|---|---|---|---|---|---|---|---|
| 1777186166 | 33.33° C | 21% | 1022.4 hPa | - | - | - | - |
| 1777185260 | 17.78° C | 51% | 1022.2 hPa | - | - | - | - |
| 1777184354 | 6.11° C | 69% | 1022.3 hPa | - | - | - | - |
| 1777183449 | 5° C | 71% | 1022.3 hPa | - | - | - | - |
| 1777182544 | 4.44° C | 72% | 1022.3 hPa | - | - | - | - |
| 1777181638 | 4.44° C | 72% | 1022.3 hPa | - | - | - | - |
| 1777180733 | 3.89° C | 72% | 1022.2 hPa | - | - | - | - |
| 1777179827 | 3.89° C | 73% | 1022.2 hPa | - | - | - | - |
| 1777178922 | 3.89° C | 73% | 1022 hPa | - | - | - | - |
| 1777178017 | 3.33° C | 73% | 1021.9 hPa | - | - | - | - |
| 1777177112 | 3.89° C | 73% | 1021.7 hPa | - | - | - | - |
| 1777176206 | 3.89° C | 72% | 1021.6 hPa | - | - | - | - |
| 1777175300 | 3.89° C | 71% | 1021.6 hPa | - | - | - | - |
| 1777174395 | 3.89° C | 71% | 1021.5 hPa | - | - | - | - |
| 1777173489 | 4.44° C | 71% | 1021.5 hPa | - | - | - | - |
| 1777172584 | 3.89° C | 70% | 1021.4 hPa | - | - | - | - |
| 1777171679 | 4.44° C | 70% | 1021.4 hPa | - | - | - | - |
| 1777170774 | 4.44° C | 69% | 1021.3 hPa | - | - | - | - |
| 1777169869 | 5° C | 69% | 1021.3 hPa | - | - | - | - |
| 1777168963 | 5° C | 69% | 1021.2 hPa | - | - | - | - |
| 1777168058 | 5° C | 68% | 1021 hPa | - | - | - | - |
| 1777167151 | 5° C | 68% | 1021 hPa | - | - | - | - |
| 1777166246 | 5.56° C | 67% | 1020.9 hPa | - | - | - | - |
| 1777165341 | 5.56° C | 67% | 1020.9 hPa | - | - | - | - |
| 1777164436 | 6.11° C | 66% | 1020.7 hPa | - | - | - | - |
* Rain since midnight (hover to see other rain measurements)
** Current wind speed in m/s (hover to see current wind gust speed)